Report METAR

 

LIBV - Gioia Del Colle, Italy
Distance from station: SSE 15km
Dati ricevuti: 22/01/2022 15:55
Prev. Nuvoloso
Prev. Nuvoloso
 Vento da O
Vento: O 13 km/h
Temperatura: 5°C
Temperatura Vento: 2°C
P.to Rugiada: -6°C
Umidità: 45%
Pressione: 1021 hPa
Nuvole: Prev. Nuvoloso
Visibility: 10 km
Cloud details: Prev. Nuvoloso 1524 m
2022/01/22 14:55 LIBV 221455Z 28007KT 9999 BKN050 05/M06 Q1021 RMK BKN SCT080 VIS MIN 9999 WIND THR32 30008KT WIND THR14 29008KT BLU
LIBD - Bari/Palese Macc, Italy
Distance from station: NNO 26km
Dati ricevuti: 22/01/2022 16:20
Poco Nuvoloso
Poco Nuvoloso
 Vento da O
Vento: O 11 km/h
Temperatura: 7°C
Temperatura Vento: 5°C
P.to Rugiada: -2°C
Umidità: 53%
Pressione: 1022 hPa
Nuvole: Poco Nuvoloso
Visibility: 10 km
Cloud details: Poco Nuvoloso 1372 m
2022/01/22 15:20 LIBD 221520Z 27006KT 9999 FEW045 07/M02 Q1022
LIBH - Marina Di Ginosa, Italy
Distance from station: S 53km
Dati ricevuti: 22/01/2022 15:55
Sereno
Sereno
 Vento da NNO
Vento: NNO 19 km/h
Temperatura: 10°C
Temperatura Vento: 7°C
P.to Rugiada: -4°C
Umidità: 37%
Pressione: 1022 hPa
Riassunto: Sereno
Visibility: superiore a 10 km
2022/01/22 14:55 LIBH 221455Z 33010KT CAVOK 10/M04 Q1022 RMK BKN BKN060 QUK 1 QUL 1 NE VIS MAR 40 KM VIS MIN 9999
 
LIBG - Grottaglie(Civ/A, Italy
Distance from station: SE 61km
Dati ricevuti: 22/01/2022 15:50
Sereno
Sereno
 Vento da NO
Vento: NO 19 km/h
Temperatura: 8°C
Temperatura Vento: 4°C
P.to Rugiada: -3°C
Umidità: 46%
Pressione: 1022 hPa
Riassunto: Sereno
Visibility: superiore a 10 km
2022/01/22 14:50 LIBG 221450Z 32010KT 280V340 CAVOK 08/M03 Q1022
LIBR - Brindisi/Casale, Italy
Distance from station: ESE 96km
Dati ricevuti: 22/01/2022 16:20
Parz. nuvoloso
Parz. nuvoloso
 Vento da NNO
Vento: NNO 19 km/h
Temperatura: 8°C
Temperatura Vento: 4°C
P.to Rugiada: -2°C
Umidità: 50%
Pressione: 1021 hPa
Nuvole: Parz. nuvoloso
Visibility: 10 km
Cloud details: Parz. nuvoloso 1372 m
2022/01/22 15:20 LIBR 221520Z 34010KT 9999 SCT045 08/M02 Q1021
LIBA - Amendola (it-Afb, Italy
Distance from station: NO 118km
Dati ricevuti: 22/01/2022 15:55
Poco Nuvoloso
Poco Nuvoloso
 Vento da O
Vento: O 11 km/h
Temperatura: 9°C
Temperatura Vento: 7°C
P.to Rugiada: -3°C
Umidità: 43%
Pressione: 1023 hPa
Nuvole: Poco Nuvoloso
Visibility: 10 km
Cloud details: Poco Nuvoloso 1524 m
2022/01/22 14:55 LIBA 221455Z 27006KT 9999 FEW050 09/M03 Q1023 RMK BKN SCT100 VIS MIN 9999 WIND THR11 27006KT WIND THR29 /////KT BLU
 
LIBF - Foggia/Gino Lisa, Italy
Distance from station: ONO 126km
Dati ricevuti: 22/01/2022 15:50
Prev. Nuvoloso
Prev. Nuvoloso
 Vento da ONO
Vento: ONO 13 km/h
Temperatura: 9°C
Temperatura Vento: 7°C
P.to Rugiada: -4°C
Umidità: 40%
Pressione: 1023 hPa
Nuvole: Prev. Nuvoloso
Visibility: 10 km
Cloud details: Prev. Nuvoloso 1829 m
2022/01/22 14:50 LIBF 221450Z 29007KT 9999 BKN060 09/M04 Q1023
LIBN - Lecce (it-Afb), Italy
Distance from station: SE 132km
Dati ricevuti: 22/01/2022 15:55
Parz. nuvoloso
Parz. nuvoloso
 Vento da NNO
Vento: NNO 19 km/h
Temperatura: 7°C
Temperatura Vento: 4°C
P.to Rugiada: -3°C
Umidità: 49%
Pressione: 1022 hPa
Nuvole: Parz. nuvoloso
Visibility: 10 km
Cloud details: Parz. nuvoloso 1219 m
2022/01/22 14:55 LIBN 221455Z 33010KT 9999 SCT040 07/M03 Q1022 RMK BKN SCT090 VIS MIN 9999 WIND THR14 33011KT WIND THR32 34011KT BLU